Rijkevorsel, Belgium
Current Conditions -  °F | °C
As of 2:25 PM on Saturday 25 Oct 2014 (Local Time) from EHGR Reporting Station
Haze Haze  
Wind Chill: 59°   Ceiling: 800
Heat Index: 59°   Visibility: 3mi
Dew Point: 55°   Wind: 7mph
Humidity: 88%   Direction: 210°SSW
Pressure: 30.06"   Gusts: NA
Location:  51.35°N, 4.76°E
Report Text: EHGR 251225Z AUTO 21006KT 5000 BR FEW007 BKN008 BKN009 15/13 Q1018 GRN
Loading
Personal Weather Stations






























Interactive Weather Map
Tropical Storm Tracking
New forecast layout! Learn more

10-Day Weather Forecast

Advertisements
Track Severe Weather on mobile